Weather at Stage Coach Hills Airport

Public forecast

Using degrees Fahrenheit for public forecast. Weather courtesy of forecast.io.

Closest aviation weather report (METAR) to Stage Coach Hills Airport

Closest report is Perot Field/Fort Worth Alliance Airport, 4.6 nm (8.5 km) WNW.

2024/05/29 20:53 (retrieved 27 minutes ago)

KAFW 292053Z COR 10008KT 10SM SCT042 SCT250 29/18 A3000 RMK AO2 SLP146 T02940178 58016

Closest aviation forecast (TAF) to Stage Coach Hills Airport

Closest forecast is Perot Field/Fort Worth Alliance Airport, 4.6 nm (8.5 km) WNW.

2024/05/29 21:03 Ammendment (retrieved 17 minutes ago)

TAF AMD KAFW 292101Z 2921/3018 12008KT P6SM BKN060 FM301000 15008KT P6SM VCSH BKN015 FM301500 15010KT P6SM VCTS OVC025CB TEMPO 3015/3018 30020G30KT 2SM TSRA